createdAt,value
2017-09-28T00:00:48.637Z,100948.72
2017-09-28T00:03:18.477Z,100950.41
2017-09-28T00:05:47.831Z,100942.66
2017-09-28T00:08:16.886Z,100944.48
2017-09-28T00:10:45.973Z,100950.30
2017-09-28T00:22:24.385Z,100945.31
2017-09-28T00:24:53.473Z,100947.77
2017-09-28T00:27:22.537Z,100955.19
2017-09-28T00:29:51.618Z,100949.88
2017-09-28T00:32:20.685Z,100950.50
2017-09-28T00:34:49.773Z,100959.80
2017-09-28T00:37:18.861Z,100949.70
2017-09-28T00:39:47.964Z,100946.38
2017-09-28T00:42:17.105Z,100949.68
2017-09-28T00:44:46.188Z,100954.19
2017-09-28T00:47:16.055Z,100949.79
2017-09-28T00:49:45.281Z,100956.02
2017-09-28T00:52:14.397Z,100949.97
2017-09-28T00:54:44.261Z,100952.52
2017-09-28T00:57:13.426Z,100943.10
2017-09-28T00:59:43.265Z,100949.20
2017-09-28T01:02:12.340Z,100947.92
2017-09-28T01:04:41.420Z,100949.09
2017-09-28T01:07:11.236Z,100947.49
2017-09-28T01:09:40.337Z,100946.01
2017-09-28T01:12:09.414Z,100945.32
2017-09-28T01:14:39.269Z,100943.22
2017-09-28T01:17:08.359Z,100944.36
2017-09-28T01:19:37.452Z,100934.72
2017-09-28T01:22:06.866Z,100936.55
2017-09-28T01:24:35.952Z,100933.00
2017-09-28T01:27:05.018Z,100931.49
2017-09-28T01:29:34.085Z,100932.03
2017-09-28T01:32:03.172Z,100937.51
2017-09-28T01:34:32.289Z,100939.37
2017-09-28T01:37:02.112Z,100936.14
2017-09-28T01:39:31.974Z,100935.72
2017-09-28T01:42:01.036Z,100931.39
2017-09-28T01:44:30.106Z,100933.21
2017-09-28T01:47:00.301Z,100929.05
2017-09-28T01:49:30.010Z,100921.69
2017-09-28T01:51:59.302Z,100925.11
2017-09-28T01:54:28.355Z,100925.73
2017-09-28T01:56:57.432Z,100929.84
2017-09-28T01:59:27.283Z,100922.54
2017-09-28T02:01:56.368Z,100919.46
2017-09-28T02:04:25.466Z,100921.48
2017-09-28T02:06:54.584Z,100913.53
2017-09-28T02:09:23.641Z,100924.54
2017-09-28T02:11:53.737Z,100919.06
2017-09-28T02:14:22.800Z,100919.55
2017-09-28T02:16:51.885Z,100911.50
2017-09-28T02:19:20.964Z,100915.04
2017-09-28T02:21:50.062Z,100917.41
2017-09-28T02:24:19.136Z,100924.42
2017-09-28T02:26:48.219Z,100913.47
2017-09-28T02:29:18.041Z,100910.50
2017-09-28T02:31:47.106Z,100911.47
2017-09-28T02:34:16.179Z,100915.52
2017-09-28T02:36:45.234Z,100911.93
2017-09-28T02:39:14.323Z,100917.06
2017-09-28T02:41:43.409Z,100921.34
2017-09-28T02:44:13.245Z,100917.69
2017-09-28T02:46:42.313Z,100920.55
2017-09-28T02:49:12.178Z,100914.67
2017-09-28T02:51:41.985Z,100933.84
2017-09-28T02:54:11.053Z,100932.13
2017-09-28T02:56:40.116Z,100936.06
2017-09-28T02:59:09.978Z,100932.53
2017-09-28T03:01:39.128Z,100933.50
2017-09-28T03:04:08.161Z,100930.02
2017-09-28T03:06:37.230Z,100930.67
2017-09-28T03:09:07.052Z,100927.11
2017-09-28T03:11:36.161Z,100928.91
2017-09-28T03:14:06.720Z,100924.86
2017-09-28T03:16:35.766Z,100919.55
2017-09-28T03:19:05.583Z,100928.65
2017-09-28T03:21:34.665Z,100934.78
2017-09-28T03:24:04.530Z,100938.61
2017-09-28T03:26:33.973Z,100938.27
2017-09-28T03:29:03.048Z,100934.90
2017-09-28T03:31:32.114Z,100940.38
2017-09-28T03:34:01.178Z,100932.21
2017-09-28T03:36:30.991Z,100928.65
2017-09-28T03:39:00.065Z,100924.37
2017-09-28T03:41:29.144Z,100922.77
2017-09-28T03:43:58.199Z,100923.77
2017-09-28T03:46:27.280Z,100924.53
2017-09-28T03:48:56.360Z,100917.17
2017-09-28T03:51:26.217Z,100922.42
2017-09-28T03:53:56.203Z,100919.91
2017-09-28T03:56:25.260Z,100917.34
2017-09-28T03:58:54.352Z,100918.14
2017-09-28T04:01:23.420Z,100918.59
2017-09-28T04:03:52.528Z,100923.53
2017-09-28T04:06:21.582Z,100921.11
2017-09-28T04:08:50.655Z,100921.91
2017-09-28T04:11:20.495Z,100924.56
2017-09-28T04:13:50.464Z,100931.56
2017-09-28T04:16:19.568Z,100930.67
2017-09-28T04:18:49.556Z,100930.59
2017-09-28T04:21:18.634Z,100928.91
2017-09-28T04:23:47.709Z,100929.79
2017-09-28T04:26:16.783Z,100923.34
2017-09-28T04:28:46.626Z,100923.17
2017-09-28T04:31:15.668Z,100905.19
2017-09-28T04:33:44.751Z,100903.25
2017-09-28T04:36:13.852Z,100901.05
2017-09-28T04:38:42.933Z,100908.01
2017-09-28T04:41:12.120Z,100908.92
2017-09-28T04:43:41.176Z,100903.33
2017-09-28T04:46:10.991Z,100909.49
2017-09-28T04:48:40.101Z,100918.22
2017-09-28T04:51:09.269Z,100908.41
2017-09-28T04:53:38.302Z,100903.12
2017-09-28T04:56:07.669Z,100909.69
2017-09-28T04:58:36.703Z,100913.14
2017-09-28T05:01:05.812Z,100911.55
2017-09-28T05:03:34.885Z,100900.50
2017-09-28T05:06:03.959Z,100907.00
2017-09-28T05:08:33.808Z,100905.23
2017-09-28T05:11:02.897Z,100909.34
2017-09-28T05:13:31.964Z,100911.86
2017-09-28T05:16:01.840Z,100907.83
2017-09-28T05:18:30.910Z,100904.55
2017-09-28T05:20:59.963Z,100902.72
2017-09-28T05:23:29.809Z,100901.75
2017-09-28T05:25:58.875Z,100903.98
2017-09-28T05:28:28.940Z,100896.33
2017-09-28T05:30:58.009Z,100899.52
2017-09-28T05:33:27.076Z,100895.01
2017-09-28T05:35:56.926Z,100901.03
2017-09-28T05:38:26.010Z,100899.88
2017-09-28T05:40:55.097Z,100904.05
2017-09-28T05:43:24.181Z,100892.86
2017-09-28T05:45:54.014Z,100898.25
2017-09-28T05:48:23.365Z,100904.84
2017-09-28T05:50:52.489Z,100903.65
2017-09-28T05:53:21.555Z,100904.84
2017-09-28T05:55:50.637Z,100906.88
2017-09-28T05:58:19.720Z,100906.92
2017-09-28T06:00:48.805Z,100905.02
2017-09-28T06:03:17.884Z,100906.12
2017-09-28T06:05:46.941Z,100914.30
2017-09-28T06:08:16.080Z,100910.33
2017-09-28T06:10:45.138Z,100915.55
2017-09-28T06:13:15.793Z,100918.87
2017-09-28T06:15:45.620Z,100920.75
2017-09-28T06:18:14.704Z,100927.43
2017-09-28T06:20:44.549Z,100921.86
2017-09-28T06:23:13.615Z,100929.96
2017-09-28T06:25:42.720Z,100924.93
2017-09-28T06:28:12.531Z,100926.48
2017-09-28T06:30:41.620Z,100926.78
2017-09-28T06:33:10.682Z,100924.66
2017-09-28T06:35:39.752Z,100923.92
2017-09-28T06:38:08.820Z,100926.71
2017-09-28T06:40:38.287Z,100931.57
2017-09-28T06:43:07.656Z,100927.52
2017-09-28T06:45:36.721Z,100942.11
2017-09-28T06:48:05.808Z,100939.13
2017-09-28T06:50:34.892Z,100935.77
2017-09-28T06:53:03.973Z,100938.70
2017-09-28T06:55:33.813Z,100938.70
2017-09-28T06:58:02.895Z,100939.54
2017-09-28T07:00:31.972Z,100929.69
2017-09-28T07:03:01.077Z,100940.66
2017-09-28T07:05:30.920Z,100943.36
2017-09-28T07:07:59.992Z,100943.72
2017-09-28T07:10:29.850Z,100935.00
2017-09-28T07:12:59.696Z,100938.09
2017-09-28T07:15:28.771Z,100940.62
2017-09-28T07:17:57.833Z,100934.73
2017-09-28T07:20:26.939Z,100935.22
2017-09-28T07:22:55.985Z,100931.51
2017-09-28T07:25:25.823Z,100932.26
2017-09-28T07:27:54.891Z,100932.61
2017-09-28T07:30:23.953Z,100943.45
2017-09-28T07:32:53.030Z,100936.58
2017-09-28T07:35:22.124Z,100939.77
2017-09-28T07:37:51.175Z,100936.58
2017-09-28T07:40:20.249Z,100939.36
2017-09-28T07:42:50.825Z,100945.63
2017-09-28T07:45:19.908Z,100941.23
2017-09-28T07:47:49.718Z,100943.34
2017-09-28T07:50:19.544Z,100948.06
2017-09-28T07:52:48.631Z,100947.55
2017-09-28T07:55:18.664Z,100944.08
2017-09-28T07:57:47.762Z,100938.84
2017-09-28T08:00:16.819Z,100945.89
2017-09-28T08:02:45.896Z,100950.67
2017-09-28T08:05:15.740Z,100946.77
2017-09-28T08:07:45.600Z,100950.25
2017-09-28T08:10:14.656Z,100950.67
2017-09-28T08:12:43.707Z,100949.80
2017-09-28T08:15:12.810Z,100954.02
2017-09-28T08:17:41.840Z,100953.41
2017-09-28T08:20:10.943Z,100952.50
2017-09-28T08:22:40.025Z,100953.70
2017-09-28T08:25:09.998Z,100952.63
2017-09-28T08:27:39.041Z,100945.23
2017-09-28T08:30:08.103Z,100939.31
2017-09-28T08:32:37.215Z,100948.44
2017-09-28T08:35:06.272Z,100942.21
2017-09-28T08:37:35.353Z,100941.23
2017-09-28T08:40:04.413Z,100933.44
2017-09-28T08:42:34.244Z,100928.20
2017-09-28T08:45:03.341Z,100940.76
2017-09-28T08:47:32.405Z,100934.08
2017-09-28T08:50:02.261Z,100939.31
2017-09-28T08:52:31.324Z,100939.66
2017-09-28T08:55:01.153Z,100932.08
2017-09-28T08:57:30.226Z,100938.39
2017-09-28T09:00:00.093Z,100938.77
2017-09-28T09:02:29.203Z,100935.61
2017-09-28T09:04:58.261Z,100935.95
2017-09-28T09:07:27.335Z,100930.92
2017-09-28T09:09:57.150Z,100931.17
2017-09-28T09:12:26.224Z,100928.17
2017-09-28T09:14:55.288Z,100931.45
2017-09-28T09:17:24.384Z,100934.67
2017-09-28T09:19:53.466Z,100931.91
2017-09-28T09:22:22.828Z,100929.06
2017-09-28T09:24:52.680Z,100928.75
2017-09-28T09:27:21.747Z,100925.47
2017-09-28T09:29:51.622Z,100917.16
2017-09-28T09:32:20.681Z,100915.27
2017-09-28T09:34:49.768Z,100911.92
2017-09-28T09:37:18.851Z,100916.16
2017-09-28T09:39:47.897Z,100919.31
2017-09-28T09:42:16.994Z,100921.09
2017-09-28T09:44:46.067Z,100912.38
2017-09-28T09:47:15.143Z,100918.30
2017-09-28T09:49:44.212Z,100925.57
2017-09-28T09:52:14.116Z,100916.17
2017-09-28T09:54:43.179Z,100918.78
2017-09-28T09:57:12.276Z,100923.69
2017-09-28T09:59:41.379Z,100927.72
2017-09-28T10:02:10.465Z,100929.08
2017-09-28T10:04:39.551Z,100920.95
2017-09-28T10:07:14.305Z,100924.41
2017-09-28T10:09:50.867Z,100915.45
2017-09-28T10:12:29.581Z,100921.61
2017-09-28T10:15:05.579Z,100927.20
2017-09-28T10:17:34.632Z,100920.30
2017-09-28T10:20:03.706Z,100912.91
2017-09-28T10:22:32.755Z,100917.96
2017-09-28T10:25:02.637Z,100924.56
2017-09-28T10:27:31.710Z,100919.69
2017-09-28T10:30:00.801Z,100927.01
2017-09-28T10:32:29.872Z,100929.24
2017-09-28T10:34:59.724Z,100926.47
2017-09-28T10:37:28.795Z,100925.18
2017-09-28T10:39:57.881Z,100931.19
2017-09-28T10:42:26.942Z,100925.84
2017-09-28T10:44:56.045Z,100933.09
2017-09-28T10:47:25.872Z,100925.14
2017-09-28T10:49:55.747Z,100930.97
2017-09-28T10:52:24.821Z,100933.80
2017-09-28T10:54:53.881Z,100934.16
2017-09-28T10:57:23.714Z,100938.16
2017-09-28T10:59:52.772Z,100937.42
2017-09-28T11:02:21.824Z,100942.22
2017-09-28T11:04:50.897Z,100940.92
2017-09-28T11:07:19.978Z,100940.76
2017-09-28T11:09:49.649Z,100938.34
2017-09-28T11:12:18.700Z,100945.67
2017-09-28T11:14:47.767Z,100950.42
2017-09-28T11:17:17.596Z,100953.62
2017-09-28T11:19:46.690Z,100945.06
2017-09-28T11:22:15.760Z,100951.77
2017-09-28T11:24:45.627Z,100946.45
2017-09-28T11:27:14.718Z,100937.90
2017-09-28T11:29:43.814Z,100936.16
2017-09-28T11:32:12.883Z,100936.00
2017-09-28T11:34:41.923Z,100936.80
2017-09-28T11:37:10.998Z,100926.66
2017-09-28T11:39:40.057Z,100933.39
2017-09-28T11:42:09.892Z,100930.34
2017-09-28T11:44:39.043Z,100931.69
2017-09-28T11:47:08.118Z,100935.05
2017-09-28T11:49:37.296Z,100933.96
2017-09-28T11:52:06.410Z,100926.44
2017-09-28T11:54:35.774Z,100937.33
2017-09-28T11:57:04.965Z,100937.33
2017-09-28T11:59:34.050Z,100930.20
2017-09-28T12:02:03.084Z,100929.02
2017-09-28T12:04:32.161Z,100929.45
2017-09-28T12:07:01.211Z,100926.64
2017-09-28T12:09:30.282Z,100933.80
2017-09-28T12:11:59.357Z,100925.88
2017-09-28T12:14:28.426Z,100920.55
2017-09-28T12:16:58.267Z,100923.96
2017-09-28T12:19:27.369Z,100912.13
2017-09-28T12:21:56.423Z,100915.31
2017-09-28T12:24:26.254Z,100912.30
2017-09-28T12:26:56.088Z,100920.36
2017-09-28T12:29:25.149Z,100920.11
2017-09-28T12:31:54.205Z,100922.28
2017-09-28T12:34:23.284Z,100919.31
2017-09-28T12:36:52.336Z,100930.40
2017-09-28T12:39:21.421Z,100930.73
2017-09-28T12:41:51.272Z,100932.05
2017-09-28T12:44:20.343Z,100936.14
2017-09-28T12:46:49.408Z,100930.34
2017-09-28T12:49:18.459Z,100931.03
2017-09-28T12:51:47.541Z,100933.73
2017-09-28T12:54:16.601Z,100924.42
2017-09-28T12:56:46.446Z,100930.94
2017-09-28T12:59:15.522Z,100929.52
2017-09-28T13:01:45.342Z,100930.83
2017-09-28T13:04:14.519Z,100943.41
2017-09-28T13:06:43.559Z,100937.77
2017-09-28T13:09:12.636Z,100940.16
2017-09-28T13:11:41.685Z,100941.13
2017-09-28T13:14:10.789Z,100940.78
2017-09-28T13:16:39.846Z,100936.03
2017-09-28T13:19:08.924Z,100947.09
2017-09-28T13:21:37.979Z,100942.84
2017-09-28T13:24:07.042Z,100938.83
2017-09-28T13:26:36.087Z,100941.59
2017-09-28T13:29:05.157Z,100937.07
2017-09-28T13:31:34.231Z,100947.81
2017-09-28T13:34:03.316Z,100953.03
2017-09-28T13:36:32.381Z,100951.84
2017-09-28T13:39:01.469Z,100948.80
2017-09-28T13:41:30.527Z,100938.86
2017-09-28T13:43:59.603Z,100934.51
2017-09-28T13:46:28.671Z,100934.56
2017-09-28T13:48:57.810Z,100933.05
2017-09-28T13:51:26.888Z,100920.04
2017-09-28T13:53:56.920Z,100920.23
2017-09-28T13:56:26.078Z,100929.34
2017-09-28T13:58:55.132Z,100921.11
2017-09-28T14:01:24.280Z,100918.87
2017-09-28T14:03:53.373Z,100915.72
2017-09-28T14:06:22.444Z,100915.13
2017-09-28T14:08:51.577Z,100910.79
2017-09-28T14:11:22.516Z,100911.66
2017-09-28T14:13:51.675Z,100910.12
2017-09-28T14:16:21.500Z,100908.35
2017-09-28T14:18:50.578Z,100904.84
2017-09-28T14:21:19.652Z,100908.40
2017-09-28T14:23:50.964Z,100903.81
2017-09-28T14:26:20.037Z,100908.30
2017-09-28T14:28:49.774Z,100909.13
2017-09-28T14:31:18.863Z,100915.72
2017-09-28T14:33:47.921Z,100919.54
2017-09-28T14:36:18.287Z,100915.84
2017-09-28T14:38:47.340Z,100912.29
2017-09-28T14:41:16.413Z,100915.45
2017-09-28T14:43:46.224Z,100917.61
2017-09-28T14:46:16.085Z,100920.39
2017-09-28T14:48:45.125Z,100924.14
2017-09-28T14:51:14.219Z,100914.00
2017-09-28T14:53:43.319Z,100917.36
2017-09-28T14:56:12.349Z,100917.76
2017-09-28T14:58:41.430Z,100914.38
2017-09-28T15:01:11.250Z,100913.94
2017-09-28T15:03:40.422Z,100912.50
2017-09-28T15:06:10.253Z,100913.09
2017-09-28T15:08:39.335Z,100913.74
2017-09-28T15:11:08.422Z,100915.91
2017-09-28T15:13:37.514Z,100913.30
2017-09-28T15:16:06.594Z,100912.75
2017-09-28T15:18:35.640Z,100912.17
2017-09-28T15:21:04.713Z,100906.44
2017-09-28T15:23:34.622Z,100915.52
2017-09-28T15:26:03.932Z,100911.56
2017-09-28T15:28:33.783Z,100903.65
2017-09-28T15:31:02.883Z,100907.20
2017-09-28T15:33:31.925Z,100910.92
2017-09-28T15:36:01.761Z,100914.22
2017-09-28T15:38:31.631Z,100913.50
2017-09-28T15:41:00.749Z,100900.34
2017-09-28T15:43:30.621Z,100907.27
2017-09-28T15:45:59.684Z,100909.83
2017-09-28T15:48:28.772Z,100915.83
2017-09-28T15:50:58.613Z,100917.06
2017-09-28T15:53:27.662Z,100912.51
2017-09-28T15:55:57.529Z,100917.47
2017-09-28T15:58:27.149Z,100916.48
2017-09-28T16:00:56.245Z,100912.34
2017-09-28T16:03:25.305Z,100913.39
2017-09-28T16:05:54.380Z,100915.17
2017-09-28T16:08:24.240Z,100917.55
2017-09-28T16:10:53.369Z,100913.91
2017-09-28T16:13:22.432Z,100918.77
2017-09-28T16:15:51.504Z,100916.53
2017-09-28T16:18:20.635Z,100918.30
2017-09-28T16:20:49.711Z,100918.08
2017-09-28T16:23:19.115Z,100915.88
2017-09-28T16:25:48.220Z,100917.42
2017-09-28T16:28:17.273Z,100923.68
2017-09-28T16:30:46.435Z,100924.47
2017-09-28T16:33:15.521Z,100916.17
2017-09-28T16:35:46.401Z,100909.45
2017-09-28T16:38:16.211Z,100918.53
2017-09-28T16:40:45.349Z,100912.59
2017-09-28T16:43:15.211Z,100924.06
2017-09-28T16:45:45.044Z,100917.86
2017-09-28T16:48:14.125Z,100922.98
2017-09-28T16:50:43.968Z,100916.82
2017-09-28T16:53:13.057Z,100917.59
2017-09-28T16:55:42.146Z,100914.80
2017-09-28T16:58:11.243Z,100913.37
2017-09-28T17:00:40.400Z,100916.31
2017-09-28T17:03:09.477Z,100916.64
2017-09-28T17:05:38.547Z,100914.84
2017-09-28T17:08:07.628Z,100925.03
2017-09-28T17:10:36.744Z,100918.08
2017-09-28T17:13:05.817Z,100926.59
2017-09-28T17:15:34.903Z,100924.34
2017-09-28T17:18:04.022Z,100927.40
2017-09-28T17:20:33.082Z,100930.23
2017-09-28T17:23:02.978Z,100933.66
2017-09-28T17:25:32.057Z,100931.00
2017-09-28T17:28:01.164Z,100931.31
2017-09-28T17:30:30.224Z,100930.66
2017-09-28T17:32:59.333Z,100936.49
2017-09-28T17:35:28.423Z,100933.64
2017-09-28T17:37:57.572Z,100929.76
2017-09-28T17:40:27.438Z,100930.85
2017-09-28T17:42:56.513Z,100930.22
2017-09-28T17:45:25.592Z,100934.66
2017-09-28T17:47:54.683Z,100931.64
2017-09-28T17:50:23.785Z,100932.20
2017-09-28T17:52:52.847Z,100929.16
2017-09-28T17:55:22.733Z,100929.66
2017-09-28T17:57:52.350Z,100931.91
2017-09-28T18:00:21.434Z,100922.80
2017-09-28T18:02:50.518Z,100927.97
2017-09-28T18:05:19.615Z,100940.58
2017-09-28T18:07:49.873Z,100946.25
2017-09-28T18:10:19.740Z,100938.32
2017-09-28T18:12:48.845Z,100935.80
2017-09-28T18:15:17.937Z,100935.37
2017-09-28T18:17:47.039Z,100945.00
2017-09-28T18:20:16.952Z,100939.84
2017-09-28T18:22:46.025Z,100934.83
2017-09-28T18:25:15.127Z,100942.80
2017-09-28T18:27:44.205Z,100932.33
2017-09-28T18:30:13.308Z,100940.58
2017-09-28T18:32:43.136Z,100945.83
2017-09-28T18:35:12.225Z,100947.25
2017-09-28T18:37:42.368Z,100945.31
2017-09-28T18:40:11.433Z,100947.45
2017-09-28T18:42:40.677Z,100947.16
2017-09-28T18:45:09.791Z,100943.98
2017-09-28T18:47:38.845Z,100947.85
2017-09-28T18:50:08.399Z,100946.02
2017-09-28T18:52:37.483Z,100951.71
2017-09-28T18:55:06.563Z,100949.53
2017-09-28T18:57:35.698Z,100947.79
2017-09-28T19:00:05.976Z,100948.77
2017-09-28T19:02:35.071Z,100950.33
2017-09-28T19:05:04.925Z,100954.53
2017-09-28T19:07:34.790Z,100951.90
2017-09-28T19:10:03.865Z,100951.05
2017-09-28T19:12:32.960Z,100956.28
2017-09-28T19:15:02.031Z,100947.86
2017-09-28T19:17:31.855Z,100946.14
2017-09-28T19:20:00.931Z,100945.18
2017-09-28T19:22:30.751Z,100950.53
2017-09-28T19:24:59.859Z,100952.75
2017-09-28T19:27:29.011Z,100949.83
2017-09-28T19:29:58.070Z,100944.46
2017-09-28T19:32:27.157Z,100947.12
2017-09-28T19:34:56.231Z,100951.11
2017-09-28T19:37:26.102Z,100950.15
2017-09-28T19:39:55.196Z,100950.58
2017-09-28T19:42:24.830Z,100961.81
2017-09-28T19:44:53.879Z,100963.80
2017-09-28T19:47:22.990Z,100954.06
2017-09-28T19:49:52.059Z,100959.38
2017-09-28T19:52:21.293Z,100954.83
2017-09-28T19:54:50.422Z,100962.04
2017-09-28T19:57:19.555Z,100952.72
2017-09-28T19:59:48.614Z,100957.34
2017-09-28T20:02:18.468Z,100953.33
2017-09-28T20:04:47.592Z,100947.77
2017-09-28T20:07:16.644Z,100951.02
2017-09-28T20:09:45.726Z,100952.52
2017-09-28T20:12:14.836Z,100954.33
2017-09-28T20:14:43.921Z,100965.04
2017-09-28T20:17:13.805Z,100952.78
2017-09-28T20:19:43.684Z,100951.58
2017-09-28T20:22:12.761Z,100953.16
2017-09-28T20:24:41.837Z,100953.95
2017-09-28T20:27:10.921Z,100951.63
2017-09-28T20:29:40.752Z,100955.33
2017-09-28T20:32:09.849Z,100953.16
2017-09-28T20:34:38.913Z,100953.46
2017-09-28T20:37:08.748Z,100953.00
2017-09-28T20:39:37.828Z,100950.77
2017-09-28T20:42:07.684Z,100954.38
2017-09-28T20:44:36.747Z,100959.92
2017-09-28T20:47:05.829Z,100971.65
2017-09-28T20:49:35.654Z,100984.57
2017-09-28T20:52:04.756Z,100983.71
2017-09-28T20:54:34.584Z,100982.80
2017-09-28T20:57:03.696Z,100975.23
2017-09-28T20:59:32.743Z,100979.36
2017-09-28T21:02:02.593Z,100981.78
2017-09-28T21:04:31.720Z,100985.55
2017-09-28T21:07:00.781Z,100983.65
2017-09-28T21:09:29.859Z,100983.86
2017-09-28T21:11:58.977Z,100980.73
2017-09-28T21:14:28.118Z,100977.38
2017-09-28T21:16:57.144Z,100973.55
2017-09-28T21:19:26.228Z,100977.44
2017-09-28T21:21:56.042Z,100977.68
2017-09-28T21:24:25.093Z,100973.85
2017-09-28T21:26:54.194Z,100973.48
2017-09-28T21:29:23.236Z,100974.38
2017-09-28T21:31:52.357Z,100975.99
2017-09-28T21:34:21.449Z,100975.69
2017-09-28T21:36:51.282Z,100970.55
2017-09-28T21:39:20.521Z,100975.41
2017-09-28T21:41:50.344Z,100966.16
2017-09-28T21:44:19.434Z,100967.50
2017-09-28T21:46:49.252Z,100969.50
2017-09-28T21:49:19.102Z,100968.12
2017-09-28T21:51:49.282Z,100965.77
2017-09-28T21:54:18.385Z,100955.36
2017-09-28T21:56:47.463Z,100958.02
2017-09-28T21:59:17.278Z,100967.66
2017-09-28T22:01:47.133Z,100962.16
2017-09-28T22:04:16.195Z,100954.53
2017-09-28T22:06:46.059Z,100961.17
2017-09-28T22:09:15.141Z,100957.74
2017-09-28T22:11:44.228Z,100956.43
2017-09-28T22:14:13.383Z,100964.51
2017-09-28T22:16:42.434Z,100953.61
2017-09-28T22:19:11.520Z,100952.08
2017-09-28T22:21:40.572Z,100949.55
2017-09-28T22:24:10.392Z,100948.53
2017-09-28T22:26:39.509Z,100946.48
2017-09-28T22:29:08.621Z,100942.95
2017-09-28T22:31:37.709Z,100946.34
2017-09-28T22:34:07.152Z,100944.26
2017-09-28T22:36:36.223Z,100942.66
2017-09-28T22:39:05.312Z,100939.66
2017-09-28T22:41:34.401Z,100932.44
2017-09-28T22:44:03.518Z,100935.67
2017-09-28T22:46:32.601Z,100930.38
2017-09-28T22:49:01.679Z,100938.17
2017-09-28T22:51:30.744Z,100936.61
2017-09-28T22:54:00.749Z,100938.04
2017-09-28T22:56:29.826Z,100939.81
2017-09-28T22:58:58.915Z,100934.34
2017-09-28T23:01:27.993Z,100932.20
2017-09-28T23:03:57.072Z,100932.97
2017-09-28T23:06:26.124Z,100936.66
2017-09-28T23:08:55.233Z,100937.55
2017-09-28T23:11:25.082Z,100936.86
2017-09-28T23:13:54.153Z,100939.25
2017-09-28T23:16:23.333Z,100940.88
2017-09-28T23:18:52.420Z,100945.47
2017-09-28T23:21:21.469Z,100941.16
2017-09-28T23:23:50.537Z,100937.28
2017-09-28T23:26:19.605Z,100932.45
2017-09-28T23:28:49.455Z,100924.05
2017-09-28T23:31:18.544Z,100931.66
2017-09-28T23:33:47.633Z,100935.29
2017-09-28T23:36:16.744Z,100932.69
2017-09-28T23:38:45.833Z,100928.27
2017-09-28T23:41:14.912Z,100926.71
2017-09-28T23:43:44.736Z,100925.93
2017-09-28T23:46:13.973Z,100923.36
2017-09-28T23:48:43.048Z,100915.69
2017-09-28T23:51:12.900Z,100920.14
2017-09-28T23:53:41.993Z,100912.00
2017-09-28T23:56:11.078Z,100914.14
2017-09-28T23:58:40.160Z,100925.52
